Rumo A Pesca — CUOK — position and weather

sailwx.info

Track history (hours):
 
Tides and Currents Weather Stations Pressure Air Temp Water Temp Dewpoint Dewpoint Depression Visibility Wind Speed Wind Dir Waves Ship Positions

Rumo A Pesca

Last reported at 2017-Oct-19 09:30 UTC. Time now 2017-Oct-19 16:12 UTC.
Position N 41°11' W 008°42'.

Length 26 m.

Type: Fishing. MMSI: 263408570.

Date/timePositionNaut miles runAvg speedWind from/ knotsBaromVisibWave heightAir tempDewpointWater temp
2017-Oct-19 09:30N 41°11' W 008°42'0 0.0
2017-Oct-19 09:00N 41°11' W 008°42'0 0.0
2017-Oct-19 08:30N 41°11' W 008°42'0 0.0
2017-Oct-19 08:01N 41°11' W 008°42'0 0.2
2017-Oct-19 07:30N 41°11' W 008°42'611.4
2017-Oct-19 06:58N 41°05' W 008°43'1 0.1
2017-Oct-18 22:20N 41°06' W 008°44'411.1
2017-Oct-18 22:00N 41°09' W 008°43'2 3.9
2017-Oct-18 21:30N 41°11' W 008°42'0 0.0
2017-Oct-17 07:49N 41°11' W 008°42'0 0.0
2017-Oct-17 07:30N 41°11' W 008°42'0 0.0
2017-Oct-17 07:00N 41°11' W 008°42'0 0.0
2017-Oct-17 06:30N 41°11' W 008°42'0 0.0
2017-Oct-17 06:00N 41°11' W 008°42'0 0.0
2017-Oct-17 05:30N 41°11' W 008°42'0 0.0
2017-Oct-17 05:00N 41°11' W 008°42'2 3.1
2017-Oct-17 04:30N 41°09' W 008°42'4 0.7
2017-Oct-16 22:32N 41°06' W 008°45'011.2
2017-Oct-16 22:30N 41°06' W 008°45'510.6
2017-Oct-16 22:00N 41°11' W 008°42'0 0.0
2017-Oct-15 20:57N 41°11' W 008°42'  
2017-Oct-13 09:01N 41°11' W 008°42'0 0.0
2017-Oct-13 09:00N 41°11' W 008°42'0 0.3
2017-Oct-13 08:30N 41°11' W 008°42'0 0.1
2017-Oct-13 08:00N 41°11' W 008°42'0 0.3
2017-Oct-13 07:30N 41°11' W 008°42'0 0.0
2017-Oct-13 07:00N 41°11' W 008°42'0 0.0
2017-Oct-13 06:30N 41°11' W 008°42'3 6.2
2017-Oct-13 06:00N 41°08' W 008°43'4 7.8
2017-Oct-13 05:30N 41°04' W 008°43'5 0.7
2017-Oct-12 22:31N 41°06' W 008°49'011.3
2017-Oct-12 22:30N 41°06' W 008°49'611.2
2017-Oct-12 22:00N 41°10' W 008°44'2 3.5
2017-Oct-12 21:30N 41°11' W 008°42'0 0.0
2017-Oct-12 07:17N 41°11' W 008°42'0 0.0
2017-Oct-12 07:01N 41°11' W 008°42'0 0.0
2017-Oct-12 06:31N 41°11' W 008°42'1 2.9
2017-Oct-12 06:01N 41°09' W 008°42'611.2
2017-Oct-12 05:30N 41°04' W 008°41'9 1.4
2017-Oct-11 22:35N 41°08' W 008°52'111.4
2017-Oct-11 22:30N 41°08' W 008°51'611.5
2017-Oct-11 22:00N 41°10' W 008°44'2 3.7
2017-Oct-11 21:31N 41°11' W 008°42'0 0.0
2017-Oct-10 07:49N 41°11' W 008°42'0 0.0
2017-Oct-10 07:30N 41°11' W 008°42'0 0.0
2017-Oct-10 07:00N 41°11' W 008°42'0 0.0
2017-Oct-10 06:30N 41°11' W 008°42'0 0.0
2017-Oct-10 06:00N 41°11' W 008°42'2 3.9
2017-Oct-10 05:30N 41°09' W 008°42'6 0.9
2017-Oct-09 22:40N 41°05' W 008°49'311.4
2017-Oct-09 22:26N 41°07' W 008°46'511.2
2017-Oct-09 22:00N 41°11' W 008°42'0 0.0
2017-Oct-09 10:13N 41°11' W 008°42'1 6.8
2017-Oct-09 10:00N 41°09' W 008°42'  
Track history (hours):
 
Tides and Currents Weather Stations Pressure Air Temp Water Temp Dewpoint Dewpoint Depression Visibility Wind Speed Wind Dir Waves Ship Positions

Rumo A Pesca

Last reported at 2017-Oct-19 09:30 UTC. Time now 2017-Oct-19 16:12 UTC.
Position N 41°11' W 008°42'.

Length 26 m.

Type: Fishing. MMSI: 263408570.

Date/timePositionNaut miles runAvg speedWind from/ knotsBaromVisibWave heightAir tempDewpointWater temp
2017-Oct-19 09:30N 41°11' W 008°42'0 0.0
2017-Oct-19 09:00N 41°11' W 008°42'0 0.0
2017-Oct-19 08:30N 41°11' W 008°42'0 0.0
2017-Oct-19 08:01N 41°11' W 008°42'0 0.2
2017-Oct-19 07:30N 41°11' W 008°42'611.4
2017-Oct-19 06:58N 41°05' W 008°43'1 0.1
2017-Oct-18 22:20N 41°06' W 008°44'411.1
2017-Oct-18 22:00N 41°09' W 008°43'2 3.9
2017-Oct-18 21:30N 41°11' W 008°42'0 0.0
2017-Oct-17 07:49N 41°11' W 008°42'0 0.0
2017-Oct-17 07:30N 41°11' W 008°42'0 0.0
2017-Oct-17 07:00N 41°11' W 008°42'0 0.0
2017-Oct-17 06:30N 41°11' W 008°42'0 0.0
2017-Oct-17 06:00N 41°11' W 008°42'0 0.0
2017-Oct-17 05:30N 41°11' W 008°42'0 0.0
2017-Oct-17 05:00N 41°11' W 008°42'2 3.1
2017-Oct-17 04:30N 41°09' W 008°42'4 0.7
2017-Oct-16 22:32N 41°06' W 008°45'011.2
2017-Oct-16 22:30N 41°06' W 008°45'510.6
2017-Oct-16 22:00N 41°11' W 008°42'0 0.0
2017-Oct-15 20:57N 41°11' W 008°42'  
2017-Oct-13 09:01N 41°11' W 008°42'0 0.0
2017-Oct-13 09:00N 41°11' W 008°42'0 0.3
2017-Oct-13 08:30N 41°11' W 008°42'0 0.1
2017-Oct-13 08:00N 41°11' W 008°42'0 0.3
2017-Oct-13 07:30N 41°11' W 008°42'0 0.0
2017-Oct-13 07:00N 41°11' W 008°42'0 0.0
2017-Oct-13 06:30N 41°11' W 008°42'3 6.2
2017-Oct-13 06:00N 41°08' W 008°43'4 7.8
2017-Oct-13 05:30N 41°04' W 008°43'5 0.7
2017-Oct-12 22:31N 41°06' W 008°49'011.3
2017-Oct-12 22:30N 41°06' W 008°49'611.2
2017-Oct-12 22:00N 41°10' W 008°44'2 3.5
2017-Oct-12 21:30N 41°11' W 008°42'0 0.0
2017-Oct-12 07:17N 41°11' W 008°42'0 0.0
2017-Oct-12 07:01N 41°11' W 008°42'0 0.0
2017-Oct-12 06:31N 41°11' W 008°42'1 2.9
2017-Oct-12 06:01N 41°09' W 008°42'611.2
2017-Oct-12 05:30N 41°04' W 008°41'9 1.4
2017-Oct-11 22:35N 41°08' W 008°52'111.4
2017-Oct-11 22:30N 41°08' W 008°51'611.5
2017-Oct-11 22:00N 41°10' W 008°44'2 3.7
2017-Oct-11 21:31N 41°11' W 008°42'0 0.0
2017-Oct-10 07:49N 41°11' W 008°42'0 0.0
2017-Oct-10 07:30N 41°11' W 008°42'0 0.0
2017-Oct-10 07:00N 41°11' W 008°42'0 0.0
2017-Oct-10 06:30N 41°11' W 008°42'0 0.0
2017-Oct-10 06:00N 41°11' W 008°42'2 3.9
2017-Oct-10 05:30N 41°09' W 008°42'6 0.9
2017-Oct-09 22:40N 41°05' W 008°49'311.4
2017-Oct-09 22:26N 41°07' W 008°46'511.2
2017-Oct-09 22:00N 41°11' W 008°42'0 0.0
2017-Oct-09 10:13N 41°11' W 008°42'1 6.8
2017-Oct-09 10:00N 41°09' W 008°42'  

Dump ship's entire track history